createdAt,value
2023-01-12T00:00:29.379Z,24.67
2023-01-12T00:02:56.316Z,29.00
2023-01-12T00:05:23.179Z,29.92
2023-01-12T00:07:50.308Z,29.17
2023-01-12T00:12:52.770Z,25.23
2023-01-12T00:22:01.816Z,28.73
2023-01-12T00:24:34.585Z,29.25
2023-01-12T00:27:32.210Z,31.58
2023-01-12T00:30:07.697Z,29.48
2023-01-12T00:32:34.570Z,28.10
2023-01-12T00:37:29.309Z,28.45
2023-01-12T00:40:02.476Z,31.90
2023-01-12T00:45:21.531Z,24.00
2023-01-12T00:47:48.467Z,27.58
2023-01-12T00:50:17.348Z,26.17
2023-01-12T00:52:45.359Z,26.48
2023-01-12T00:55:12.640Z,20.40
2023-01-12T00:57:40.063Z,26.45
2023-01-12T01:00:08.085Z,20.23
2023-01-12T01:02:34.911Z,17.35
2023-01-12T01:05:01.854Z,20.45
2023-01-12T01:07:28.665Z,18.70
2023-01-12T01:13:07.791Z,19.00
2023-01-12T01:18:09.952Z,15.57
2023-01-12T01:26:25.138Z,10.50
2023-01-12T01:28:52.103Z,12.38
2023-01-12T01:31:25.815Z,12.32
2023-01-12T01:36:38.993Z,13.43
2023-01-12T01:39:05.981Z,15.20
2023-01-12T01:44:29.941Z,13.30
2023-01-12T01:47:13.369Z,14.50
2023-01-12T02:01:07.801Z,16.17
2023-01-12T02:03:36.881Z,11.82
2023-01-12T02:06:06.033Z,13.02
2023-01-12T02:08:55.255Z,13.85
2023-01-12T02:11:40.844Z,16.55
2023-01-12T02:14:38.265Z,16.02
2023-01-12T02:17:30.343Z,15.63
2023-01-12T02:23:42.647Z,16.00
2023-01-12T02:29:36.282Z,17.63
2023-01-12T02:35:22.181Z,20.70
2023-01-12T02:41:05.363Z,16.73
2023-01-12T02:43:36.505Z,17.90
2023-01-12T02:46:22.459Z,15.45
2023-01-12T02:52:16.666Z,17.57
2023-01-12T02:57:57.457Z,17.85
2023-01-12T03:00:24.890Z,20.02
2023-01-12T03:02:58.813Z,17.87
2023-01-12T03:05:25.658Z,18.42
2023-01-12T03:16:40.472Z,19.10
2023-01-12T03:19:19.256Z,21.50
2023-01-12T03:24:40.379Z,23.35
2023-01-12T03:29:50.255Z,22.23
2023-01-12T03:41:23.594Z,17.38
2023-01-12T03:47:22.826Z,17.55
2023-01-12T03:49:57.549Z,17.50
2023-01-12T03:55:30.029Z,17.58
2023-01-12T03:57:58.016Z,15.05
2023-01-12T04:06:50.088Z,14.93
2023-01-12T04:09:17.342Z,16.50
2023-01-12T04:12:02.807Z,15.32
2023-01-12T04:14:29.994Z,14.93
2023-01-12T04:16:57.379Z,15.20
2023-01-12T04:19:24.682Z,15.55
2023-01-12T04:24:50.356Z,18.45
2023-01-12T04:27:18.524Z,19.10
2023-01-12T04:30:00.754Z,12.13
2023-01-12T04:32:27.695Z,9.45
2023-01-12T04:34:54.976Z,8.98
2023-01-12T04:37:32.841Z,10.00
2023-01-12T04:40:00.394Z,10.13
2023-01-12T04:47:55.441Z,13.05
2023-01-12T04:50:22.272Z,14.73
2023-01-12T05:01:45.145Z,14.65
2023-01-12T05:04:12.124Z,14.27
2023-01-12T05:12:29.168Z,18.27
2023-01-12T05:17:58.116Z,16.38
2023-01-12T05:20:25.139Z,21.30
2023-01-12T05:22:52.731Z,16.90
2023-01-12T05:50:07.990Z,15.65
2023-01-12T05:55:10.776Z,15.00
2023-01-12T05:57:37.556Z,16.60
2023-01-12T06:00:07.919Z,16.08
2023-01-12T06:05:20.131Z,13.10
2023-01-12T06:10:34.412Z,12.27
2023-01-12T06:13:20.229Z,11.57
2023-01-12T06:24:02.999Z,8.85
2023-01-12T06:34:36.613Z,8.75
2023-01-12T06:39:52.175Z,11.55
2023-01-12T06:42:31.586Z,14.73
2023-01-12T06:45:00.571Z,10.68
2023-01-12T06:47:28.391Z,11.80
2023-01-12T06:49:57.912Z,10.27
2023-01-12T06:52:26.231Z,9.73
2023-01-12T06:57:28.339Z,9.32
2023-01-12T06:59:57.246Z,9.50
2023-01-12T07:02:55.924Z,10.80
2023-01-12T07:05:23.003Z,10.63
2023-01-12T07:07:57.558Z,11.45
2023-01-12T07:10:24.353Z,12.88
2023-01-12T07:12:51.244Z,13.55
2023-01-12T07:15:19.572Z,12.00
2023-01-12T07:17:46.332Z,11.98
2023-01-12T07:20:13.407Z,11.98
2023-01-12T07:22:40.310Z,11.23
2023-01-12T07:25:07.265Z,11.57
2023-01-12T07:27:34.059Z,12.70
2023-01-12T07:30:01.247Z,11.63
2023-01-12T07:32:29.819Z,11.90
2023-01-12T07:35:32.665Z,12.30
2023-01-12T07:38:33.550Z,10.85
2023-01-12T07:41:01.986Z,13.23
2023-01-12T07:43:29.262Z,13.35
2023-01-12T07:48:30.848Z,17.45
2023-01-12T07:50:59.308Z,14.68
2023-01-12T07:53:26.489Z,16.70
2023-01-12T07:55:53.219Z,22.85
2023-01-12T07:58:54.638Z,44.92
2023-01-12T08:01:21.586Z,30.02
2023-01-12T08:06:25.603Z,13.88
2023-01-12T08:09:17.132Z,11.30
2023-01-12T08:12:01.379Z,12.32
2023-01-12T08:14:33.434Z,9.77
2023-01-12T08:17:02.163Z,14.23
2023-01-12T08:22:20.435Z,16.15
2023-01-12T08:25:00.425Z,17.10
2023-01-12T08:27:30.620Z,14.63
2023-01-12T08:30:00.010Z,13.98
2023-01-12T08:32:28.965Z,13.13
2023-01-12T08:35:01.712Z,9.52
2023-01-12T08:37:30.247Z,5.90
2023-01-12T08:39:58.431Z,6.30
2023-01-12T08:42:28.406Z,6.90
2023-01-12T08:44:56.150Z,6.20
2023-01-12T08:47:30.619Z,6.20
2023-01-12T08:50:00.297Z,17.30
2023-01-12T08:52:32.364Z,19.33
2023-01-12T08:55:00.241Z,17.80
2023-01-12T09:00:47.619Z,18.83
2023-01-12T09:11:52.204Z,15.52
2023-01-12T09:17:08.377Z,15.68
2023-01-12T09:19:39.158Z,16.05
2023-01-12T09:22:06.005Z,15.50
2023-01-12T09:24:33.897Z,15.93
2023-01-12T09:27:01.541Z,12.65
2023-01-12T09:32:26.058Z,15.40
2023-01-12T09:34:59.589Z,16.27
2023-01-12T09:37:27.973Z,15.32
2023-01-12T09:39:55.661Z,16.83
2023-01-12T09:42:41.889Z,14.98
2023-01-12T09:45:40.845Z,15.43
2023-01-12T09:48:13.106Z,15.32
2023-01-12T09:51:09.060Z,15.57
2023-01-12T09:53:40.101Z,15.65
2023-01-12T10:05:46.174Z,14.43
2023-01-12T10:08:46.523Z,13.70
2023-01-12T10:11:20.429Z,13.88
2023-01-12T10:13:56.214Z,15.50
2023-01-12T10:16:36.528Z,14.75
2023-01-12T10:19:16.084Z,15.85
2023-01-12T10:24:21.441Z,17.40
2023-01-12T10:26:55.149Z,19.00
2023-01-12T10:29:22.414Z,18.23
2023-01-12T10:31:49.327Z,17.27
2023-01-12T10:34:16.183Z,15.07
2023-01-12T10:36:44.407Z,9.63
2023-01-12T10:44:32.760Z,7.95
2023-01-12T10:47:10.636Z,6.80
2023-01-12T10:49:38.389Z,6.13
2023-01-12T10:52:34.394Z,6.70
2023-01-12T10:55:01.350Z,13.25
2023-01-12T11:00:26.580Z,23.52
2023-01-12T11:02:54.361Z,22.92
2023-01-12T11:05:35.502Z,22.70
2023-01-12T11:11:33.427Z,26.67
2023-01-12T11:14:03.435Z,26.67
2023-01-12T11:19:37.439Z,15.15
2023-01-12T11:22:17.555Z,11.25
2023-01-12T11:24:53.063Z,7.95
2023-01-12T11:30:46.897Z,4.68
2023-01-12T11:33:32.739Z,5.85
2023-01-12T11:36:12.048Z,6.05
2023-01-12T11:38:43.765Z,5.40
2023-01-12T11:47:22.722Z,7.88
2023-01-12T11:49:58.591Z,7.40
2023-01-12T11:52:27.476Z,5.60
2023-01-12T11:54:55.363Z,6.85
2023-01-12T11:57:38.033Z,6.57
2023-01-12T12:00:25.855Z,9.13
2023-01-12T12:03:05.874Z,3.90
2023-01-12T12:05:58.516Z,5.00
2023-01-12T12:08:31.852Z,6.13
2023-01-12T12:11:43.269Z,6.57
2023-01-12T12:17:14.835Z,7.25
2023-01-12T12:20:19.341Z,9.95
2023-01-12T12:23:00.932Z,7.85
2023-01-12T12:25:52.341Z,7.90
2023-01-12T12:28:28.754Z,9.48
2023-01-12T12:31:16.873Z,8.63
2023-01-12T12:43:07.645Z,6.57
2023-01-12T12:45:49.437Z,5.78
2023-01-12T12:48:21.729Z,7.03
2023-01-12T12:51:06.932Z,7.80
2023-01-12T12:56:12.326Z,6.50
2023-01-12T12:58:40.534Z,6.07
2023-01-12T13:01:27.245Z,5.25
2023-01-12T13:07:05.460Z,5.15
2023-01-12T13:09:38.984Z,5.68
2023-01-12T13:12:06.080Z,7.28
2023-01-12T13:14:35.663Z,6.53
2023-01-12T13:17:34.814Z,5.50
2023-01-12T13:22:51.707Z,6.78
2023-01-12T13:25:29.603Z,8.50
2023-01-12T13:27:59.937Z,8.02
2023-01-12T13:30:26.913Z,6.00
2023-01-12T13:32:53.732Z,6.05
2023-01-12T13:35:28.287Z,8.02
2023-01-12T13:38:18.757Z,6.43
2023-01-12T13:43:26.520Z,6.47
2023-01-12T13:46:01.046Z,6.60
2023-01-12T13:48:30.126Z,7.43
2023-01-12T13:51:17.247Z,9.40
2023-01-12T13:53:58.689Z,10.95
2023-01-12T13:59:19.269Z,17.50
2023-01-12T14:01:48.403Z,16.77
2023-01-12T14:04:50.697Z,14.82
2023-01-12T14:07:27.825Z,12.05
2023-01-12T14:10:19.184Z,17.20
2023-01-12T14:12:46.372Z,9.45
2023-01-12T14:16:00.756Z,10.10
2023-01-12T14:21:33.389Z,33.53
2023-01-12T14:24:15.787Z,22.98
2023-01-12T14:26:45.384Z,35.10
2023-01-12T14:29:44.559Z,43.80
2023-01-12T14:32:13.957Z,14.32
2023-01-12T14:34:49.418Z,18.88
2023-01-12T14:37:32.446Z,14.07
2023-01-12T14:39:59.302Z,15.27
2023-01-12T14:42:45.171Z,5.80
2023-01-12T14:45:42.704Z,8.23
2023-01-12T14:48:31.114Z,10.82
2023-01-12T14:51:18.152Z,9.85
2023-01-12T14:53:47.932Z,8.32
2023-01-12T14:56:14.744Z,9.55
2023-01-12T14:58:42.145Z,15.15
2023-01-12T15:01:10.671Z,21.15
2023-01-12T15:03:43.687Z,21.63
2023-01-12T15:06:15.740Z,18.23
2023-01-12T15:08:53.472Z,22.52
2023-01-12T15:11:30.959Z,20.83
2023-01-12T15:13:59.531Z,25.90
2023-01-12T15:16:44.914Z,25.92
2023-01-12T15:19:30.417Z,25.15
2023-01-12T15:22:16.940Z,37.33
2023-01-12T15:25:02.621Z,28.13
2023-01-12T15:27:30.337Z,29.17
2023-01-12T15:29:57.712Z,18.20
2023-01-12T15:32:48.993Z,17.77
2023-01-12T15:35:21.675Z,16.52
2023-01-12T15:37:49.338Z,12.88
2023-01-12T15:40:17.625Z,13.35
2023-01-12T15:42:44.724Z,14.80
2023-01-12T15:45:37.194Z,13.27
2023-01-12T15:48:08.876Z,12.20
2023-01-12T15:56:25.078Z,12.55
2023-01-12T15:58:52.620Z,11.50
2023-01-12T16:01:20.565Z,12.65
2023-01-12T16:04:15.087Z,14.05
2023-01-12T16:06:37.830Z,15.45
2023-01-12T16:09:05.276Z,14.15
2023-01-12T16:11:32.128Z,11.15
2023-01-12T16:13:58.951Z,12.43
2023-01-12T16:16:26.696Z,12.30
2023-01-12T16:18:58.707Z,11.57
2023-01-12T16:21:28.133Z,12.35
2023-01-12T16:23:57.852Z,11.48
2023-01-12T16:26:26.732Z,11.57
2023-01-12T16:28:53.558Z,10.07
2023-01-12T16:31:20.814Z,11.07
2023-01-12T16:33:47.724Z,12.60
2023-01-12T16:36:15.398Z,13.00
2023-01-12T16:38:42.801Z,14.70
2023-01-12T16:41:12.571Z,13.52
2023-01-12T16:43:40.007Z,11.60
2023-01-12T16:46:07.699Z,16.20
2023-01-12T16:48:35.917Z,15.73
2023-01-12T16:51:05.150Z,14.02
2023-01-12T16:53:32.625Z,15.00
2023-01-12T16:56:07.262Z,14.50
2023-01-12T16:58:34.168Z,14.93
2023-01-12T17:01:01.413Z,19.08
2023-01-12T17:03:28.882Z,18.65
2023-01-12T17:05:55.782Z,18.70
2023-01-12T17:08:22.873Z,16.88
2023-01-12T17:10:49.767Z,18.13
2023-01-12T17:13:16.685Z,17.33
2023-01-12T17:15:43.615Z,20.35
2023-01-12T17:18:10.784Z,18.20
2023-01-12T17:20:37.858Z,17.42
2023-01-12T17:23:05.496Z,19.63
2023-01-12T17:25:33.371Z,14.88
2023-01-12T17:28:00.434Z,12.00
2023-01-12T17:30:27.423Z,13.70
2023-01-12T17:32:54.259Z,15.20
2023-01-12T17:35:21.175Z,17.65
2023-01-12T17:37:48.079Z,21.60
2023-01-12T17:40:15.592Z,24.38
2023-01-12T17:43:00.860Z,26.65
2023-01-12T17:45:28.117Z,26.83
2023-01-12T17:47:55.111Z,28.42
2023-01-12T17:50:21.937Z,25.45
2023-01-12T17:52:51.886Z,36.88
2023-01-12T17:55:18.783Z,58.17
2023-01-12T17:57:45.577Z,38.63
2023-01-12T18:00:15.719Z,42.67
2023-01-12T18:02:43.671Z,70.55
2023-01-12T18:05:10.631Z,86.75
2023-01-12T18:07:37.478Z,84.65
2023-01-12T18:10:04.754Z,59.28
2023-01-12T18:12:31.718Z,54.55
2023-01-12T18:14:59.142Z,55.55
2023-01-12T18:17:26.069Z,69.45
2023-01-12T18:19:52.973Z,57.72
2023-01-12T18:22:20.261Z,58.92
2023-01-12T18:24:47.415Z,64.78
2023-01-12T18:27:14.925Z,61.55
2023-01-12T18:29:41.760Z,57.50
2023-01-12T18:32:09.116Z,58.22
2023-01-12T18:34:38.301Z,56.05
2023-01-12T18:37:05.175Z,49.47
2023-01-12T18:39:32.121Z,34.70
2023-01-12T18:42:17.760Z,32.72
2023-01-12T18:44:44.620Z,42.28
2023-01-12T18:47:32.946Z,47.67
2023-01-12T18:50:19.809Z,60.40
2023-01-12T18:53:05.399Z,61.30
2023-01-12T18:55:36.240Z,64.43
2023-01-12T18:58:03.235Z,59.05
2023-01-12T19:00:30.019Z,64.38
2023-01-12T19:02:58.253Z,57.05
2023-01-12T19:05:35.060Z,53.53
2023-01-12T19:08:05.245Z,42.72
2023-01-12T19:10:34.213Z,37.60
2023-01-12T19:13:20.037Z,40.63
2023-01-12T19:16:05.786Z,56.75
2023-01-12T19:18:36.338Z,54.72
2023-01-12T19:21:26.171Z,53.00
2023-01-12T19:24:11.666Z,44.15
2023-01-12T19:26:57.059Z,35.55
2023-01-12T19:29:23.965Z,43.17
2023-01-12T19:31:51.305Z,35.58
2023-01-12T19:34:18.929Z,34.85
2023-01-12T19:36:46.144Z,31.85
2023-01-12T19:39:13.476Z,31.83
2023-01-12T19:41:58.787Z,31.70
2023-01-12T19:44:25.988Z,27.48
2023-01-12T19:46:52.887Z,35.83
2023-01-12T19:49:20.124Z,28.38
2023-01-12T19:54:32.191Z,30.35
2023-01-12T19:56:59.293Z,27.55
2023-01-12T19:59:27.660Z,27.77
2023-01-12T20:01:55.040Z,25.33
2023-01-12T20:04:22.057Z,24.38
2023-01-12T20:06:48.984Z,23.77
2023-01-12T20:09:15.789Z,19.05
2023-01-12T20:11:42.556Z,19.92
2023-01-12T20:14:09.675Z,20.45
2023-01-12T20:16:36.445Z,26.75
2023-01-12T20:19:04.233Z,38.50
2023-01-12T20:21:31.459Z,32.42
2023-01-12T20:23:58.405Z,31.48
2023-01-12T20:26:25.451Z,33.03
2023-01-12T20:28:52.239Z,32.92
2023-01-12T20:31:23.437Z,34.47
2023-01-12T20:33:50.805Z,36.83
2023-01-12T20:36:17.998Z,32.80
2023-01-12T20:38:46.989Z,37.80
2023-01-12T20:41:18.444Z,31.05
2023-01-12T20:43:45.773Z,37.83
2023-01-12T20:46:14.185Z,23.95
2023-01-12T20:48:42.552Z,48.33
2023-01-12T20:51:11.877Z,48.95
2023-01-12T20:53:39.226Z,38.17
2023-01-12T20:56:06.714Z,32.35
2023-01-12T20:58:34.504Z,23.95
2023-01-12T21:01:01.873Z,24.05
2023-01-12T21:03:29.237Z,28.45
2023-01-12T21:05:57.530Z,36.15
2023-01-12T21:08:39.307Z,29.17
2023-01-12T21:11:06.792Z,35.67
2023-01-12T21:13:35.062Z,37.55
2023-01-12T21:16:04.544Z,49.08
2023-01-12T21:18:32.877Z,43.50
2023-01-12T21:20:59.871Z,26.33
2023-01-12T21:23:27.799Z,22.95
2023-01-12T21:25:55.558Z,25.45
2023-01-12T21:28:23.980Z,27.50
2023-01-12T21:30:51.334Z,27.52
2023-01-12T21:33:18.951Z,25.88
2023-01-12T21:35:54.719Z,23.52
2023-01-12T21:38:21.824Z,26.05
2023-01-12T21:40:48.666Z,24.58
2023-01-12T21:43:18.108Z,29.48
2023-01-12T21:45:53.256Z,24.17
2023-01-12T21:48:22.757Z,28.13
2023-01-12T21:50:50.128Z,23.35
2023-01-12T21:53:23.045Z,27.83
2023-01-12T21:55:58.337Z,27.98
2023-01-12T21:58:26.424Z,50.22
2023-01-12T22:00:55.347Z,69.50
2023-01-12T22:03:27.971Z,73.25
2023-01-12T22:05:55.691Z,60.97
2023-01-12T22:08:27.136Z,55.80
2023-01-12T22:10:54.037Z,59.50
2023-01-12T22:13:20.915Z,53.70
2023-01-12T22:15:51.019Z,44.85
2023-01-12T22:18:17.996Z,46.72
2023-01-12T22:20:44.962Z,42.00
2023-01-12T22:23:13.094Z,39.75
2023-01-12T22:25:40.336Z,34.63
2023-01-12T22:28:07.842Z,51.35
2023-01-12T22:33:13.578Z,40.95
2023-01-12T22:35:41.030Z,40.17
2023-01-12T22:38:08.268Z,39.60
2023-01-12T22:40:35.930Z,50.42
2023-01-12T22:43:21.584Z,40.50
2023-01-12T22:45:50.622Z,33.15
2023-01-12T22:48:17.566Z,28.90
2023-01-12T22:50:44.447Z,32.17
2023-01-12T22:53:11.660Z,33.15
2023-01-12T22:55:42.341Z,34.60
2023-01-12T22:58:09.175Z,31.95
2023-01-12T23:00:38.835Z,24.35
2023-01-12T23:03:10.474Z,29.50
2023-01-12T23:05:47.860Z,29.83
2023-01-12T23:08:16.464Z,32.72
2023-01-12T23:13:24.718Z,25.00
2023-01-12T23:15:55.809Z,26.70
2023-01-12T23:18:29.280Z,25.95
2023-01-12T23:21:15.904Z,20.60
2023-01-12T23:23:49.434Z,37.10
2023-01-12T23:29:22.667Z,25.50
2023-01-12T23:35:06.901Z,32.50
2023-01-12T23:37:34.134Z,30.95
2023-01-12T23:40:00.941Z,22.73
2023-01-12T23:42:27.674Z,22.77
2023-01-12T23:44:54.807Z,25.85
2023-01-12T23:47:21.672Z,39.72
2023-01-12T23:49:48.479Z,40.90
2023-01-12T23:52:17.147Z,32.63
2023-01-12T23:54:43.946Z,27.55
2023-01-12T23:57:10.790Z,33.80
2023-01-12T23:59:39.027Z,33.15
